sensor_id;sensor_type;location;lat;lon;timestamp;P1;durP1;ratioP1;P2;durP2;ratioP2
17993;SDS011;9122;48.406;9.984;2023-06-10T00:01:39;7.35;;;6.65;;
17993;SDS011;9122;48.406;9.984;2023-06-10T00:04:24;5.85;;;5.35;;
17993;SDS011;9122;48.406;9.984;2023-06-10T00:07:09;6.50;;;5.85;;
17993;SDS011;9122;48.406;9.984;2023-06-10T00:09:53;6.53;;;5.80;;
17993;SDS011;9122;48.406;9.984;2023-06-10T00:12:38;6.43;;;5.93;;
17993;SDS011;9122;48.406;9.984;2023-06-10T00:15:23;6.00;;;5.50;;
17993;SDS011;9122;48.406;9.984;2023-06-10T00:18:08;7.35;;;5.70;;
17993;SDS011;9122;48.406;9.984;2023-06-10T00:20:53;5.90;;;5.28;;
17993;SDS011;9122;48.406;9.984;2023-06-10T00:23:38;6.70;;;6.00;;
17993;SDS011;9122;48.406;9.984;2023-06-10T00:26:23;5.80;;;5.40;;
17993;SDS011;9122;48.406;9.984;2023-06-10T00:29:08;5.68;;;5.28;;
17993;SDS011;9122;48.406;9.984;2023-06-10T00:31:52;5.85;;;5.35;;
17993;SDS011;9122;48.406;9.984;2023-06-10T00:34:41;5.88;;;5.40;;
17993;SDS011;9122;48.406;9.984;2023-06-10T00:37:25;4.93;;;4.43;;
17993;SDS011;9122;48.406;9.984;2023-06-10T00:40:09;5.63;;;5.13;;
17993;SDS011;9122;48.406;9.984;2023-06-10T00:42:54;5.47;;;4.97;;
17993;SDS011;9122;48.406;9.984;2023-06-10T00:45:38;5.20;;;4.80;;
17993;SDS011;9122;48.406;9.984;2023-06-10T00:48:23;5.88;;;5.00;;
17993;SDS011;9122;48.406;9.984;2023-06-10T00:51:08;5.53;;;5.13;;
17993;SDS011;9122;48.406;9.984;2023-06-10T00:53:53;6.40;;;5.70;;
17993;SDS011;9122;48.406;9.984;2023-06-10T00:56:38;5.63;;;5.22;;
17993;SDS011;9122;48.406;9.984;2023-06-10T00:59:23;5.53;;;5.07;;
17993;SDS011;9122;48.406;9.984;2023-06-10T01:02:08;5.60;;;5.20;;
17993;SDS011;9122;48.406;9.984;2023-06-10T01:04:53;6.05;;;5.55;;
17993;SDS011;9122;48.406;9.984;2023-06-10T01:10:50;5.63;;;5.13;;
17993;SDS011;9122;48.406;9.984;2023-06-10T01:13:39;5.78;;;5.28;;
17993;SDS011;9122;48.406;9.984;2023-06-10T01:16:25;6.38;;;5.82;;
17993;SDS011;9122;48.406;9.984;2023-06-10T01:19:10;5.25;;;4.78;;
17993;SDS011;9122;48.406;9.984;2023-06-10T01:21:56;5.65;;;5.25;;
17993;SDS011;9122;48.406;9.984;2023-06-10T01:24:44;5.47;;;5.07;;
17993;SDS011;9122;48.406;9.984;2023-06-10T01:27:29;7.18;;;5.55;;
17993;SDS011;9122;48.406;9.984;2023-06-10T01:30:17;6.43;;;5.55;;
17993;SDS011;9122;48.406;9.984;2023-06-10T01:33:07;6.20;;;5.70;;
17993;SDS011;9122;48.406;9.984;2023-06-10T01:35:56;6.00;;;5.50;;
17993;SDS011;9122;48.406;9.984;2023-06-10T01:38:42;6.53;;;5.93;;
17993;SDS011;9122;48.406;9.984;2023-06-10T01:41:28;6.55;;;5.95;;
17993;SDS011;9122;48.406;9.984;2023-06-10T01:44:12;6.95;;;6.35;;
17993;SDS011;9122;48.406;9.984;2023-06-10T01:47:02;5.72;;;5.20;;
17993;SDS011;9122;48.406;9.984;2023-06-10T01:49:47;6.30;;;5.80;;
17993;SDS011;9122;48.406;9.984;2023-06-10T01:52:31;8.40;;;6.38;;
17993;SDS011;9122;48.406;9.984;2023-06-10T01:55:16;9.13;;;5.53;;
17993;SDS011;9122;48.406;9.984;2023-06-10T01:58:00;5.95;;;5.45;;
17993;SDS011;9122;48.406;9.984;2023-06-10T02:00:45;6.28;;;5.78;;
17993;SDS011;9122;48.406;9.984;2023-06-10T02:03:29;5.82;;;5.30;;
17993;SDS011;9122;48.406;9.984;2023-06-10T02:06:13;6.22;;;5.72;;
17993;SDS011;9122;48.406;9.984;2023-06-10T02:08:58;7.47;;;6.78;;
17993;SDS011;9122;48.406;9.984;2023-06-10T02:11:43;6.57;;;6.00;;
17993;SDS011;9122;48.406;9.984;2023-06-10T02:14:27;6.80;;;6.07;;
17993;SDS011;9122;48.406;9.984;2023-06-10T02:17:12;6.97;;;6.00;;
17993;SDS011;9122;48.406;9.984;2023-06-10T02:19:58;6.63;;;5.85;;
17993;SDS011;9122;48.406;9.984;2023-06-10T02:22:43;7.85;;;5.95;;
17993;SDS011;9122;48.406;9.984;2023-06-10T02:25:28;7.93;;;6.38;;
17993;SDS011;9122;48.406;9.984;2023-06-10T02:28:12;6.63;;;5.93;;
17993;SDS011;9122;48.406;9.984;2023-06-10T02:30:57;6.13;;;5.68;;
17993;SDS011;9122;48.406;9.984;2023-06-10T02:33:43;5.68;;;5.28;;
17993;SDS011;9122;48.406;9.984;2023-06-10T02:36:28;6.22;;;5.72;;
17993;SDS011;9122;48.406;9.984;2023-06-10T02:39:12;6.78;;;6.10;;
17993;SDS011;9122;48.406;9.984;2023-06-10T02:41:56;6.03;;;5.53;;
17993;SDS011;9122;48.406;9.984;2023-06-10T02:44:41;7.20;;;4.97;;
17993;SDS011;9122;48.406;9.984;2023-06-10T02:47:26;5.72;;;5.32;;
17993;SDS011;9122;48.406;9.984;2023-06-10T02:50:10;5.90;;;5.47;;
17993;SDS011;9122;48.406;9.984;2023-06-10T02:52:55;6.53;;;5.90;;
17993;SDS011;9122;48.406;9.984;2023-06-10T02:55:40;6.90;;;6.35;;
17993;SDS011;9122;48.406;9.984;2023-06-10T02:58:24;6.38;;;5.75;;
17993;SDS011;9122;48.406;9.984;2023-06-10T03:01:11;6.10;;;5.60;;
17993;SDS011;9122;48.406;9.984;2023-06-10T03:03:55;5.57;;;5.13;;
17993;SDS011;9122;48.406;9.984;2023-06-10T03:06:40;5.90;;;5.40;;
17993;SDS011;9122;48.406;9.984;2023-06-10T03:09:24;7.00;;;6.40;;
17993;SDS011;9122;48.406;9.984;2023-06-10T03:12:09;6.82;;;6.22;;
17993;SDS011;9122;48.406;9.984;2023-06-10T03:14:54;6.20;;;5.68;;
17993;SDS011;9122;48.406;9.984;2023-06-10T03:17:38;6.25;;;5.75;;
17993;SDS011;9122;48.406;9.984;2023-06-10T03:20:24;6.32;;;5.82;;
17993;SDS011;9122;48.406;9.984;2023-06-10T03:23:09;6.25;;;5.75;;
17993;SDS011;9122;48.406;9.984;2023-06-10T03:25:53;6.13;;;5.65;;
17993;SDS011;9122;48.406;9.984;2023-06-10T03:28:39;5.07;;;4.68;;
17993;SDS011;9122;48.406;9.984;2023-06-10T03:31:23;5.70;;;5.20;;
17993;SDS011;9122;48.406;9.984;2023-06-10T03:34:08;6.38;;;5.82;;
17993;SDS011;9122;48.406;9.984;2023-06-10T03:36:53;5.95;;;5.53;;
17993;SDS011;9122;48.406;9.984;2023-06-10T03:39:37;6.65;;;6.05;;
17993;SDS011;9122;48.406;9.984;2023-06-10T03:42:22;6.55;;;6.05;;
17993;SDS011;9122;48.406;9.984;2023-06-10T03:45:06;7.05;;;6.35;;
17993;SDS011;9122;48.406;9.984;2023-06-10T03:47:52;6.25;;;5.72;;
17993;SDS011;9122;48.406;9.984;2023-06-10T03:50:36;5.88;;;5.40;;
17993;SDS011;9122;48.406;9.984;2023-06-10T03:53:21;6.70;;;6.20;;
17993;SDS011;9122;48.406;9.984;2023-06-10T03:56:08;6.53;;;6.03;;
17993;SDS011;9122;48.406;9.984;2023-06-10T03:58:53;6.30;;;5.70;;
17993;SDS011;9122;48.406;9.984;2023-06-10T04:01:37;5.47;;;5.07;;
17993;SDS011;9122;48.406;9.984;2023-06-10T04:04:24;6.20;;;5.60;;
17993;SDS011;9122;48.406;9.984;2023-06-10T04:07:09;6.88;;;6.28;;
17993;SDS011;9122;48.406;9.984;2023-06-10T04:09:55;7.00;;;6.40;;
17993;SDS011;9122;48.406;9.984;2023-06-10T04:12:39;6.60;;;6.00;;
17993;SDS011;9122;48.406;9.984;2023-06-10T04:15:23;6.55;;;5.95;;
17993;SDS011;9122;48.406;9.984;2023-06-10T04:18:08;6.85;;;6.22;;
17993;SDS011;9122;48.406;9.984;2023-06-10T04:20:53;6.10;;;5.50;;
17993;SDS011;9122;48.406;9.984;2023-06-10T04:23:37;7.00;;;6.30;;
17993;SDS011;9122;48.406;9.984;2023-06-10T04:26:21;6.57;;;5.97;;
17993;SDS011;9122;48.406;9.984;2023-06-10T04:29:06;7.88;;;7.18;;
17993;SDS011;9122;48.406;9.984;2023-06-10T04:31:50;5.80;;;5.30;;
17993;SDS011;9122;48.406;9.984;2023-06-10T04:34:35;7.45;;;6.78;;
17993;SDS011;9122;48.406;9.984;2023-06-10T04:37:23;6.65;;;6.15;;
17993;SDS011;9122;48.406;9.984;2023-06-10T04:40:08;6.82;;;6.22;;
17993;SDS011;9122;48.406;9.984;2023-06-10T04:42:53;6.53;;;5.95;;
17993;SDS011;9122;48.406;9.984;2023-06-10T04:45:37;7.18;;;6.53;;
17993;SDS011;9122;48.406;9.984;2023-06-10T04:48:21;6.55;;;5.93;;
17993;SDS011;9122;48.406;9.984;2023-06-10T04:51:07;6.20;;;5.70;;
17993;SDS011;9122;48.406;9.984;2023-06-10T04:53:51;5.28;;;4.88;;
17993;SDS011;9122;48.406;9.984;2023-06-10T04:56:36;6.25;;;5.75;;
17993;SDS011;9122;48.406;9.984;2023-06-10T04:59:20;6.03;;;5.57;;
17993;SDS011;9122;48.406;9.984;2023-06-10T05:02:05;6.53;;;5.88;;
17993;SDS011;9122;48.406;9.984;2023-06-10T05:04:49;6.68;;;5.97;;
17993;SDS011;9122;48.406;9.984;2023-06-10T05:07:33;6.35;;;5.50;;
17993;SDS011;9122;48.406;9.984;2023-06-10T05:10:18;6.65;;;6.00;;
17993;SDS011;9122;48.406;9.984;2023-06-10T05:13:03;6.22;;;5.78;;
17993;SDS011;9122;48.406;9.984;2023-06-10T05:15:47;6.10;;;5.60;;
17993;SDS011;9122;48.406;9.984;2023-06-10T05:18:32;6.15;;;5.70;;
17993;SDS011;9122;48.406;9.984;2023-06-10T05:21:16;5.90;;;5.40;;
17993;SDS011;9122;48.406;9.984;2023-06-10T05:24:01;6.90;;;6.30;;
17993;SDS011;9122;48.406;9.984;2023-06-10T05:26:46;6.47;;;5.90;;
17993;SDS011;9122;48.406;9.984;2023-06-10T05:29:32;6.38;;;5.80;;
17993;SDS011;9122;48.406;9.984;2023-06-10T05:32:17;6.82;;;6.22;;
17993;SDS011;9122;48.406;9.984;2023-06-10T05:35:01;6.10;;;5.70;;
17993;SDS011;9122;48.406;9.984;2023-06-10T05:37:48;6.63;;;6.07;;
17993;SDS011;9122;48.406;9.984;2023-06-10T05:40:32;6.22;;;5.72;;
17993;SDS011;9122;48.406;9.984;2023-06-10T05:43:17;6.75;;;6.15;;
17993;SDS011;9122;48.406;9.984;2023-06-10T05:46:01;6.38;;;5.82;;
17993;SDS011;9122;48.406;9.984;2023-06-10T05:48:45;5.72;;;5.30;;
17993;SDS011;9122;48.406;9.984;2023-06-10T05:51:29;6.50;;;6.00;;
17993;SDS011;9122;48.406;9.984;2023-06-10T05:54:14;6.00;;;5.40;;
17993;SDS011;9122;48.406;9.984;2023-06-10T05:56:59;6.72;;;6.10;;
17993;SDS011;9122;48.406;9.984;2023-06-10T05:59:44;6.65;;;6.10;;
17993;SDS011;9122;48.406;9.984;2023-06-10T06:02:28;6.65;;;6.05;;
17993;SDS011;9122;48.406;9.984;2023-06-10T06:05:13;7.15;;;6.50;;
17993;SDS011;9122;48.406;9.984;2023-06-10T06:07:57;7.00;;;6.30;;
17993;SDS011;9122;48.406;9.984;2023-06-10T06:10:41;8.10;;;6.55;;
17993;SDS011;9122;48.406;9.984;2023-06-10T06:13:26;6.72;;;6.13;;
17993;SDS011;9122;48.406;9.984;2023-06-10T06:16:10;6.55;;;5.57;;
17993;SDS011;9122;48.406;9.984;2023-06-10T06:18:54;7.03;;;6.25;;
17993;SDS011;9122;48.406;9.984;2023-06-10T06:21:39;7.35;;;6.60;;
17993;SDS011;9122;48.406;9.984;2023-06-10T06:24:24;7.85;;;7.03;;
17993;SDS011;9122;48.406;9.984;2023-06-10T06:27:08;6.47;;;5.97;;
17993;SDS011;9122;48.406;9.984;2023-06-10T06:29:54;6.80;;;6.15;;
17993;SDS011;9122;48.406;9.984;2023-06-10T06:32:40;6.97;;;5.97;;
17993;SDS011;9122;48.406;9.984;2023-06-10T06:35:25;6.78;;;6.18;;
17993;SDS011;9122;48.406;9.984;2023-06-10T06:38:09;6.57;;;6.07;;
17993;SDS011;9122;48.406;9.984;2023-06-10T06:40:53;6.88;;;6.18;;
17993;SDS011;9122;48.406;9.984;2023-06-10T06:43:37;6.20;;;5.70;;
17993;SDS011;9122;48.406;9.984;2023-06-10T06:46:22;7.13;;;6.53;;
17993;SDS011;9122;48.406;9.984;2023-06-10T06:49:06;7.55;;;6.20;;
17993;SDS011;9122;48.406;9.984;2023-06-10T06:51:51;7.55;;;6.85;;
17993;SDS011;9122;48.406;9.984;2023-06-10T06:54:35;7.68;;;6.63;;
17993;SDS011;9122;48.406;9.984;2023-06-10T06:57:20;7.43;;;6.72;;
17993;SDS011;9122;48.406;9.984;2023-06-10T07:00:05;7.28;;;6.68;;
17993;SDS011;9122;48.406;9.984;2023-06-10T07:02:49;7.03;;;6.47;;
17993;SDS011;9122;48.406;9.984;2023-06-10T07:05:34;6.78;;;6.25;;
17993;SDS011;9122;48.406;9.984;2023-06-10T07:08:18;7.47;;;6.80;;
17993;SDS011;9122;48.406;9.984;2023-06-10T07:11:03;7.38;;;6.68;;
17993;SDS011;9122;48.406;9.984;2023-06-10T07:13:47;8.85;;;8.05;;
17993;SDS011;9122;48.406;9.984;2023-06-10T07:16:32;7.28;;;6.63;;
17993;SDS011;9122;48.406;9.984;2023-06-10T07:19:16;7.85;;;7.18;;
17993;SDS011;9122;48.406;9.984;2023-06-10T07:22:01;6.80;;;6.25;;
17993;SDS011;9122;48.406;9.984;2023-06-10T07:24:45;7.47;;;6.78;;
17993;SDS011;9122;48.406;9.984;2023-06-10T07:27:30;7.10;;;6.40;;
17993;SDS011;9122;48.406;9.984;2023-06-10T07:30:14;14.20;;;7.30;;
17993;SDS011;9122;48.406;9.984;2023-06-10T07:32:59;6.85;;;6.25;;
17993;SDS011;9122;48.406;9.984;2023-06-10T07:35:44;6.68;;;6.13;;
17993;SDS011;9122;48.406;9.984;2023-06-10T07:38:29;6.43;;;5.82;;
17993;SDS011;9122;48.406;9.984;2023-06-10T07:41:14;6.93;;;6.40;;
17993;SDS011;9122;48.406;9.984;2023-06-10T07:44:01;7.82;;;6.40;;
17993;SDS011;9122;48.406;9.984;2023-06-10T07:46:46;7.80;;;6.78;;
17993;SDS011;9122;48.406;9.984;2023-06-10T07:49:30;6.82;;;6.22;;
17993;SDS011;9122;48.406;9.984;2023-06-10T07:52:15;6.55;;;6.05;;
17993;SDS011;9122;48.406;9.984;2023-06-10T07:54:59;6.85;;;6.25;;
17993;SDS011;9122;48.406;9.984;2023-06-10T07:57:45;7.55;;;6.47;;
17993;SDS011;9122;48.406;9.984;2023-06-10T08:00:29;6.22;;;5.72;;
17993;SDS011;9122;48.406;9.984;2023-06-10T08:03:14;6.63;;;6.03;;
17993;SDS011;9122;48.406;9.984;2023-06-10T08:05:59;6.22;;;5.72;;
17993;SDS011;9122;48.406;9.984;2023-06-10T08:08:43;7.65;;;6.63;;
17993;SDS011;9122;48.406;9.984;2023-06-10T08:11:32;6.68;;;6.07;;
17993;SDS011;9122;48.406;9.984;2023-06-10T08:14:16;11.38;;;5.75;;
17993;SDS011;9122;48.406;9.984;2023-06-10T08:17:01;5.10;;;4.78;;
17993;SDS011;9122;48.406;9.984;2023-06-10T08:19:45;6.80;;;6.05;;
17993;SDS011;9122;48.406;9.984;2023-06-10T08:22:31;7.75;;;6.05;;
17993;SDS011;9122;48.406;9.984;2023-06-10T08:25:16;5.80;;;5.15;;
17993;SDS011;9122;48.406;9.984;2023-06-10T08:28:00;5.95;;;5.43;;
17993;SDS011;9122;48.406;9.984;2023-06-10T08:30:45;6.40;;;5.90;;
17993;SDS011;9122;48.406;9.984;2023-06-10T08:33:29;5.82;;;5.43;;
17993;SDS011;9122;48.406;9.984;2023-06-10T08:36:14;6.25;;;5.75;;
17993;SDS011;9122;48.406;9.984;2023-06-10T08:38:59;7.97;;;5.68;;
17993;SDS011;9122;48.406;9.984;2023-06-10T08:41:43;6.53;;;5.95;;
17993;SDS011;9122;48.406;9.984;2023-06-10T08:44:53;6.07;;;5.57;;
17993;SDS011;9122;48.406;9.984;2023-06-10T08:47:42;6.10;;;5.60;;
17993;SDS011;9122;48.406;9.984;2023-06-10T08:50:30;5.90;;;5.45;;
17993;SDS011;9122;48.406;9.984;2023-06-10T08:53:16;6.30;;;5.22;;
17993;SDS011;9122;48.406;9.984;2023-06-10T08:56:03;6.28;;;5.43;;
17993;SDS011;9122;48.406;9.984;2023-06-10T08:58:49;5.25;;;4.82;;
17993;SDS011;9122;48.406;9.984;2023-06-10T09:01:33;5.78;;;5.20;;
17993;SDS011;9122;48.406;9.984;2023-06-10T09:04:18;5.80;;;5.25;;
17993;SDS011;9122;48.406;9.984;2023-06-10T09:07:04;5.35;;;4.95;;
17993;SDS011;9122;48.406;9.984;2023-06-10T09:09:49;5.93;;;5.32;;
17993;SDS011;9122;48.406;9.984;2023-06-10T09:12:34;5.20;;;4.80;;
17993;SDS011;9122;48.406;9.984;2023-06-10T09:15:19;5.68;;;5.25;;
17993;SDS011;9122;48.406;9.984;2023-06-10T09:18:04;6.10;;;5.55;;
17993;SDS011;9122;48.406;9.984;2023-06-10T09:20:48;5.50;;;5.10;;
17993;SDS011;9122;48.406;9.984;2023-06-10T09:23:33;5.32;;;4.93;;
17993;SDS011;9122;48.406;9.984;2023-06-10T09:26:19;5.63;;;5.22;;
17993;SDS011;9122;48.406;9.984;2023-06-10T09:29:05;5.22;;;4.82;;
17993;SDS011;9122;48.406;9.984;2023-06-10T09:31:51;5.30;;;4.88;;
17993;SDS011;9122;48.406;9.984;2023-06-10T09:34:36;5.95;;;5.35;;
17993;SDS011;9122;48.406;9.984;2023-06-10T09:37:22;4.72;;;4.40;;
17993;SDS011;9122;48.406;9.984;2023-06-10T09:40:07;5.78;;;5.28;;
17993;SDS011;9122;48.406;9.984;2023-06-10T09:42:58;5.80;;;5.35;;
17993;SDS011;9122;48.406;9.984;2023-06-10T09:45:43;5.57;;;5.18;;
17993;SDS011;9122;48.406;9.984;2023-06-10T09:48:34;5.80;;;5.38;;
17993;SDS011;9122;48.406;9.984;2023-06-10T09:51:18;5.03;;;4.50;;
17993;SDS011;9122;48.406;9.984;2023-06-10T09:54:03;5.05;;;4.65;;
17993;SDS011;9122;48.406;9.984;2023-06-10T09:56:48;4.75;;;4.35;;
17993;SDS011;9122;48.406;9.984;2023-06-10T09:59:35;4.95;;;4.65;;
17993;SDS011;9122;48.406;9.984;2023-06-10T10:02:21;5.53;;;5.03;;
17993;SDS011;9122;48.406;9.984;2023-06-10T10:05:06;5.32;;;4.82;;
17993;SDS011;9122;48.406;9.984;2023-06-10T10:07:51;5.25;;;4.85;;
17993;SDS011;9122;48.406;9.984;2023-06-10T10:10:36;4.60;;;4.30;;
17993;SDS011;9122;48.406;9.984;2023-06-10T10:13:20;4.78;;;4.47;;
17993;SDS011;9122;48.406;9.984;2023-06-10T10:16:14;9.25;;;3.67;;
17993;SDS011;9122;48.406;9.984;2023-06-10T10:19:23;5.03;;;4.57;;
17993;SDS011;9122;48.406;9.984;2023-06-10T10:22:25;4.78;;;4.38;;
17993;SDS011;9122;48.406;9.984;2023-06-10T10:25:11;5.45;;;5.05;;
17993;SDS011;9122;48.406;9.984;2023-06-10T10:28:07;5.68;;;5.18;;
17993;SDS011;9122;48.406;9.984;2023-06-10T10:30:54;4.85;;;4.43;;
17993;SDS011;9122;48.406;9.984;2023-06-10T10:34:02;5.63;;;5.07;;
17993;SDS011;9122;48.406;9.984;2023-06-10T10:36:50;5.25;;;4.70;;
17993;SDS011;9122;48.406;9.984;2023-06-10T10:39:35;5.38;;;4.90;;
17993;SDS011;9122;48.406;9.984;2023-06-10T10:42:20;5.05;;;4.75;;
17993;SDS011;9122;48.406;9.984;2023-06-10T10:45:05;5.32;;;4.43;;
17993;SDS011;9122;48.406;9.984;2023-06-10T10:47:52;4.38;;;4.03;;
17993;SDS011;9122;48.406;9.984;2023-06-10T10:50:37;3.67;;;3.38;;
17993;SDS011;9122;48.406;9.984;2023-06-10T10:53:22;3.97;;;3.72;;
17993;SDS011;9122;48.406;9.984;2023-06-10T10:56:16;3.97;;;3.67;;
17993;SDS011;9122;48.406;9.984;2023-06-10T10:59:04;4.10;;;3.60;;
17993;SDS011;9122;48.406;9.984;2023-06-10T11:01:49;4.97;;;4.30;;
17993;SDS011;9122;48.406;9.984;2023-06-10T11:04:35;4.72;;;4.32;;
17993;SDS011;9122;48.406;9.984;2023-06-10T11:07:20;5.43;;;3.95;;
17993;SDS011;9122;48.406;9.984;2023-06-10T11:10:09;5.05;;;4.10;;
17993;SDS011;9122;48.406;9.984;2023-06-10T11:12:54;4.38;;;3.92;;
17993;SDS011;9122;48.406;9.984;2023-06-10T11:15:44;4.15;;;3.85;;
17993;SDS011;9122;48.406;9.984;2023-06-10T11:18:38;5.85;;;5.25;;
17993;SDS011;9122;48.406;9.984;2023-06-10T11:21:23;4.60;;;4.28;;
17993;SDS011;9122;48.406;9.984;2023-06-10T11:24:12;4.35;;;4.05;;
17993;SDS011;9122;48.406;9.984;2023-06-10T11:32:50;4.30;;;3.90;;
17993;SDS011;9122;48.406;9.984;2023-06-10T11:35:36;3.83;;;3.63;;
17993;SDS011;9122;48.406;9.984;2023-06-10T11:38:20;4.00;;;3.78;;
17993;SDS011;9122;48.406;9.984;2023-06-10T11:41:05;4.47;;;4.18;;
17993;SDS011;9122;48.406;9.984;2023-06-10T11:43:51;4.07;;;3.78;;
17993;SDS011;9122;48.406;9.984;2023-06-10T11:46:37;5.38;;;4.97;;
17993;SDS011;9122;48.406;9.984;2023-06-10T11:49:22;4.45;;;4.15;;
17993;SDS011;9122;48.406;9.984;2023-06-10T11:52:08;4.07;;;3.88;;
17993;SDS011;9122;48.406;9.984;2023-06-10T11:54:55;4.22;;;3.92;;
17993;SDS011;9122;48.406;9.984;2023-06-10T11:57:40;5.20;;;4.80;;
17993;SDS011;9122;48.406;9.984;2023-06-10T12:00:24;5.03;;;4.50;;
17993;SDS011;9122;48.406;9.984;2023-06-10T12:03:09;5.32;;;4.93;;
17993;SDS011;9122;48.406;9.984;2023-06-10T12:06:00;4.75;;;4.40;;
17993;SDS011;9122;48.406;9.984;2023-06-10T12:08:46;4.35;;;4.05;;
17993;SDS011;9122;48.406;9.984;2023-06-10T12:11:30;6.45;;;4.50;;
17993;SDS011;9122;48.406;9.984;2023-06-10T12:14:15;5.28;;;4.88;;
17993;SDS011;9122;48.406;9.984;2023-06-10T12:17:00;4.78;;;4.47;;
17993;SDS011;9122;48.406;9.984;2023-06-10T12:19:46;4.82;;;4.47;;
17993;SDS011;9122;48.406;9.984;2023-06-10T12:22:41;5.68;;;5.28;;
17993;SDS011;9122;48.406;9.984;2023-06-10T12:25:27;4.53;;;4.07;;
17993;SDS011;9122;48.406;9.984;2023-06-10T12:28:13;5.45;;;5.05;;
17993;SDS011;9122;48.406;9.984;2023-06-10T12:31:06;5.25;;;4.85;;
17993;SDS011;9122;48.406;9.984;2023-06-10T12:34:06;4.97;;;4.57;;
17993;SDS011;9122;48.406;9.984;2023-06-10T12:36:51;5.43;;;5.05;;
17993;SDS011;9122;48.406;9.984;2023-06-10T12:39:36;5.50;;;5.05;;
17993;SDS011;9122;48.406;9.984;2023-06-10T12:42:21;5.07;;;4.70;;
17993;SDS011;9122;48.406;9.984;2023-06-10T12:45:07;5.07;;;4.68;;
17993;SDS011;9122;48.406;9.984;2023-06-10T12:48:03;5.40;;;4.93;;
17993;SDS011;9122;48.406;9.984;2023-06-10T12:50:54;4.82;;;4.53;;
17993;SDS011;9122;48.406;9.984;2023-06-10T12:53:39;6.03;;;5.47;;
17993;SDS011;9122;48.406;9.984;2023-06-10T12:56:23;5.85;;;5.45;;
17993;SDS011;9122;48.406;9.984;2023-06-10T12:59:15;5.93;;;5.50;;
17993;SDS011;9122;48.406;9.984;2023-06-10T13:02:00;5.72;;;5.15;;
17993;SDS011;9122;48.406;9.984;2023-06-10T13:04:44;5.55;;;5.07;;
17993;SDS011;9122;48.406;9.984;2023-06-10T13:07:29;6.07;;;5.68;;
17993;SDS011;9122;48.406;9.984;2023-06-10T13:10:14;5.63;;;5.22;;
17993;SDS011;9122;48.406;9.984;2023-06-10T13:13:00;5.95;;;5.55;;
17993;SDS011;9122;48.406;9.984;2023-06-10T13:15:45;6.05;;;5.60;;
17993;SDS011;9122;48.406;9.984;2023-06-10T13:18:30;5.72;;;5.35;;
17993;SDS011;9122;48.406;9.984;2023-06-10T13:21:20;6.25;;;5.75;;
17993;SDS011;9122;48.406;9.984;2023-06-10T13:24:04;5.82;;;5.38;;
17993;SDS011;9122;48.406;9.984;2023-06-10T13:26:49;5.90;;;5.50;;
17993;SDS011;9122;48.406;9.984;2023-06-10T13:29:34;5.72;;;5.32;;
17993;SDS011;9122;48.406;9.984;2023-06-10T13:32:19;6.20;;;5.60;;
17993;SDS011;9122;48.406;9.984;2023-06-10T13:35:03;4.38;;;4.10;;
17993;SDS011;9122;48.406;9.984;2023-06-10T13:37:49;5.47;;;5.07;;
17993;SDS011;9122;48.406;9.984;2023-06-10T13:40:33;5.07;;;4.68;;
17993;SDS011;9122;48.406;9.984;2023-06-10T13:43:17;4.32;;;4.03;;
17993;SDS011;9122;48.406;9.984;2023-06-10T13:46:02;5.40;;;4.90;;
17993;SDS011;9122;48.406;9.984;2023-06-10T13:48:47;4.22;;;3.92;;
17993;SDS011;9122;48.406;9.984;2023-06-10T13:51:32;4.70;;;4.40;;
17993;SDS011;9122;48.406;9.984;2023-06-10T13:54:16;4.72;;;4.43;;
17993;SDS011;9122;48.406;9.984;2023-06-10T13:57:01;4.95;;;4.65;;
17993;SDS011;9122;48.406;9.984;2023-06-10T13:59:46;5.00;;;4.60;;
17993;SDS011;9122;48.406;9.984;2023-06-10T14:02:31;4.97;;;4.57;;
17993;SDS011;9122;48.406;9.984;2023-06-10T14:05:15;5.63;;;4.97;;
17993;SDS011;9122;48.406;9.984;2023-06-10T14:08:00;4.72;;;4.40;;
17993;SDS011;9122;48.406;9.984;2023-06-10T14:10:44;4.90;;;4.50;;
17993;SDS011;9122;48.406;9.984;2023-06-10T14:13:29;4.30;;;4.00;;
17993;SDS011;9122;48.406;9.984;2023-06-10T14:16:13;4.75;;;4.40;;
17993;SDS011;9122;48.406;9.984;2023-06-10T14:18:57;4.78;;;4.32;;
17993;SDS011;9122;48.406;9.984;2023-06-10T14:21:42;4.72;;;4.43;;
17993;SDS011;9122;48.406;9.984;2023-06-10T14:24:27;4.38;;;4.07;;
17993;SDS011;9122;48.406;9.984;2023-06-10T14:27:11;5.43;;;4.97;;
17993;SDS011;9122;48.406;9.984;2023-06-10T14:29:56;5.28;;;4.85;;
17993;SDS011;9122;48.406;9.984;2023-06-10T14:32:49;4.85;;;4.45;;
17993;SDS011;9122;48.406;9.984;2023-06-10T14:35:34;5.05;;;4.63;;
17993;SDS011;9122;48.406;9.984;2023-06-10T14:38:18;4.32;;;4.07;;
17993;SDS011;9122;48.406;9.984;2023-06-10T14:41:02;4.75;;;4.38;;
17993;SDS011;9122;48.406;9.984;2023-06-10T14:43:47;4.03;;;3.67;;
17993;SDS011;9122;48.406;9.984;2023-06-10T14:46:31;4.93;;;4.53;;
17993;SDS011;9122;48.406;9.984;2023-06-10T14:49:16;3.92;;;3.63;;
17993;SDS011;9122;48.406;9.984;2023-06-10T14:52:00;4.63;;;4.22;;
17993;SDS011;9122;48.406;9.984;2023-06-10T14:54:44;4.50;;;4.20;;
17993;SDS011;9122;48.406;9.984;2023-06-10T14:57:30;5.13;;;4.63;;
17993;SDS011;9122;48.406;9.984;2023-06-10T15:00:14;5.70;;;5.18;;
17993;SDS011;9122;48.406;9.984;2023-06-10T15:03:03;5.55;;;5.15;;
17993;SDS011;9122;48.406;9.984;2023-06-10T15:05:47;4.72;;;4.32;;
17993;SDS011;9122;48.406;9.984;2023-06-10T15:08:32;5.35;;;4.95;;
17993;SDS011;9122;48.406;9.984;2023-06-10T15:11:17;4.72;;;4.43;;
17993;SDS011;9122;48.406;9.984;2023-06-10T15:14:01;4.82;;;4.45;;
17993;SDS011;9122;48.406;9.984;2023-06-10T15:16:45;4.20;;;3.90;;
17993;SDS011;9122;48.406;9.984;2023-06-10T15:19:29;4.63;;;4.22;;
17993;SDS011;9122;48.406;9.984;2023-06-10T15:22:15;4.65;;;4.25;;
17993;SDS011;9122;48.406;9.984;2023-06-10T15:24:59;4.68;;;4.22;;
17993;SDS011;9122;48.406;9.984;2023-06-10T15:27:44;4.35;;;4.07;;
17993;SDS011;9122;48.406;9.984;2023-06-10T15:30:28;4.20;;;3.90;;
17993;SDS011;9122;48.406;9.984;2023-06-10T15:33:13;3.45;;;3.15;;
17993;SDS011;9122;48.406;9.984;2023-06-10T15:35:58;4.10;;;3.80;;
17993;SDS011;9122;48.406;9.984;2023-06-10T15:38:42;3.75;;;3.55;;
17993;SDS011;9122;48.406;9.984;2023-06-10T15:41:27;3.70;;;3.40;;
17993;SDS011;9122;48.406;9.984;2023-06-10T15:44:11;3.90;;;3.55;;
17993;SDS011;9122;48.406;9.984;2023-06-10T15:46:56;3.70;;;3.40;;
17993;SDS011;9122;48.406;9.984;2023-06-10T15:49:40;3.60;;;3.33;;
17993;SDS011;9122;48.406;9.984;2023-06-10T15:52:25;3.72;;;3.53;;
17993;SDS011;9122;48.406;9.984;2023-06-10T15:55:09;3.60;;;3.40;;
17993;SDS011;9122;48.406;9.984;2023-06-10T15:57:53;4.35;;;3.63;;
17993;SDS011;9122;48.406;9.984;2023-06-10T16:00:38;3.78;;;3.50;;
17993;SDS011;9122;48.406;9.984;2023-06-10T16:03:22;3.63;;;3.35;;
17993;SDS011;9122;48.406;9.984;2023-06-10T16:06:07;3.88;;;3.60;;
17993;SDS011;9122;48.406;9.984;2023-06-10T16:08:51;4.15;;;3.75;;
17993;SDS011;9122;48.406;9.984;2023-06-10T16:11:35;4.70;;;4.07;;
17993;SDS011;9122;48.406;9.984;2023-06-10T16:14:19;3.85;;;3.55;;
17993;SDS011;9122;48.406;9.984;2023-06-10T16:17:04;4.72;;;4.43;;
17993;SDS011;9122;48.406;9.984;2023-06-10T16:19:49;3.78;;;3.55;;
17993;SDS011;9122;48.406;9.984;2023-06-10T16:22:34;3.95;;;3.65;;
17993;SDS011;9122;48.406;9.984;2023-06-10T16:25:18;3.78;;;3.58;;
17993;SDS011;9122;48.406;9.984;2023-06-10T16:28:03;4.10;;;3.80;;
17993;SDS011;9122;48.406;9.984;2023-06-10T16:30:47;4.50;;;4.10;;
17993;SDS011;9122;48.406;9.984;2023-06-10T16:33:32;4.40;;;3.92;;
17993;SDS011;9122;48.406;9.984;2023-06-10T16:36:17;4.40;;;4.00;;
17993;SDS011;9122;48.406;9.984;2023-06-10T16:39:01;4.60;;;4.20;;
17993;SDS011;9122;48.406;9.984;2023-06-10T16:41:46;4.20;;;3.90;;
17993;SDS011;9122;48.406;9.984;2023-06-10T16:44:30;4.55;;;4.03;;
17993;SDS011;9122;48.406;9.984;2023-06-10T16:47:15;4.47;;;4.18;;
17993;SDS011;9122;48.406;9.984;2023-06-10T16:49:59;4.22;;;3.92;;
17993;SDS011;9122;48.406;9.984;2023-06-10T16:52:44;3.70;;;3.50;;
17993;SDS011;9122;48.406;9.984;2023-06-10T16:55:28;3.92;;;3.63;;
17993;SDS011;9122;48.406;9.984;2023-06-10T16:58:12;4.47;;;3.55;;
17993;SDS011;9122;48.406;9.984;2023-06-10T17:00:57;3.67;;;3.38;;